Bryan, Texas
Current Conditions -  °F | °C
As of 9:15 PM on Tuesday 25 Nov 2014 (Local Time) from KCFD Reporting Station
Clear Clear  
Wind Chill: 42°   Ceiling: Unl
Heat Index: 45°   Visibility: 10mi
Dew Point: 35°   Wind: 5mph
Humidity: 70%   Direction: 170°S
Pressure: 30.22"   Gusts: NA
Location:  30.67°N, 96.37°W
Report Text: KCFD 260315Z AUTO 17004KT 10SM CLR 07/02 A3022 RMK AO2 T00700018
Loading
Personal Weather Stations






























Interactive Weather Map New forecast layout! Learn more

10-Day Weather Forecast

Advertisements
Track Severe Weather on mobile